Mystic Blue — SVA7348 — position and weather

sailwx.info

Track history (hours):
 
Tides and Currents Weather Stations Pressure Air Temp Water Temp Dewpoint Dewpoint Depression Visibility Wind Speed Wind Dir Waves Ship Positions

Mystic Blue

Last reported at 2017-Nov-04 08:44 UTC. Time now 2017-Dec-13 17:05 UTC.
Position N 37°55' E 023°42'.
Warning: this ship's position is 39 days out of date.

Length 12 m.

Type: Pleasure craft. MMSI: 239989200.

Date/timePositionNaut miles runAvg speedWind from/ knotsBaromVisibWave heightAir tempDewpointWater temp
2017-Nov-04 08:44N 37°55' E 023°42'0 0.0
2017-Nov-04 08:29N 37°55' E 023°42'0 0.0
2017-Nov-04 07:52N 37°55' E 023°42'0 0.0
2017-Nov-04 07:28N 37°55' E 023°42'1 2.0
2017-Nov-04 07:01N 37°54' E 023°42'2 3.0
2017-Nov-04 06:29N 37°53' E 023°40'1 2.1
2017-Nov-04 06:01N 37°52' E 023°40'2 5.0
2017-Nov-04 05:30N 37°51' E 023°37'3 5.1
2017-Nov-04 05:01N 37°49' E 023°35'2 3.9
2017-Nov-04 04:31N 37°47' E 023°34'2 3.1
2017-Nov-04 04:00N 37°45' E 023°34'2 0.1
2017-Nov-03 11:59N 37°44' E 023°33'2 3.9
2017-Nov-03 11:30N 37°42' E 023°33'2 3.3
2017-Nov-03 11:00N 37°41' E 023°31'11 3.4
2017-Nov-03 07:50N 37°39' E 023°18'  
2017-Oct-29 10:26N 37°38' E 023°30'2 5.3
2017-Oct-29 09:58N 37°40' E 023°31'2 4.9
2017-Oct-29 09:29N 37°42' E 023°33'2 3.7
2017-Oct-29 09:00N 37°43' E 023°35'1 1.9
2017-Oct-29 08:30N 37°44' E 023°35'2 3.1
2017-Oct-29 08:00N 37°46' E 023°35'2 3.6
2017-Oct-29 07:30N 37°47' E 023°35'2 3.9
2017-Oct-29 07:00N 37°49' E 023°34'1 2.0
2017-Oct-29 06:30N 37°50' E 023°35'3 7.0
2017-Oct-29 06:00N 37°52' E 023°38'3 6.2
2017-Oct-29 05:30N 37°54' E 023°41'1 2.2
2017-Oct-29 04:58N 37°55' E 023°42'0 0.0
2017-Oct-28 14:24N 37°55' E 023°42'0 0.0
2017-Oct-28 14:00N 37°55' E 023°42'0 0.0
2017-Oct-28 13:21N 37°55' E 023°42'0 0.0
2017-Oct-28 12:57N 37°55' E 023°42'0 0.0
2017-Oct-28 12:30N 37°55' E 023°42'0 0.0
2017-Oct-28 12:00N 37°55' E 023°42'0 0.0
2017-Oct-28 11:30N 37°55' E 023°42'0 0.0
2017-Oct-28 10:57N 37°55' E 023°42'0 0.0
2017-Oct-28 10:24N 37°55' E 023°42'0 0.0
2017-Oct-28 09:54N 37°55' E 023°42'0 0.0
2017-Oct-28 09:30N 37°55' E 023°42'0 0.0
2017-Oct-28 08:57N 37°55' E 023°42'0 0.0
2017-Oct-28 08:30N 37°55' E 023°42'0 0.0
2017-Oct-28 08:00N 37°55' E 023°42'0 0.0
2017-Oct-28 07:18N 37°55' E 023°42'0 0.0
2017-Oct-28 07:00N 37°55' E 023°42'0 0.0
2017-Oct-28 06:21N 37°55' E 023°42'0 0.0
2017-Oct-27 13:49N 37°55' E 023°42'0 0.0
2017-Oct-27 13:25N 37°55' E 023°42'0 0.2
2017-Oct-27 13:00N 37°55' E 023°42'3 6.6
2017-Oct-27 12:29N 37°53' E 023°38'3 7.2
2017-Oct-27 12:00N 37°52' E 023°34'4 7.4
2017-Oct-27 11:30N 37°50' E 023°30'2 4.4
2017-Oct-27 10:59N 37°49' E 023°27'0 0.0
2017-Oct-27 10:26N 37°49' E 023°27'0 0.0
2017-Oct-27 09:59N 37°49' E 023°27'0 0.1
2017-Oct-27 09:30N 37°49' E 023°27'3 5.7
2017-Oct-27 09:00N 37°47' E 023°25'3 5.5
2017-Oct-27 08:30N 37°46' E 023°22'7 0.3
2017-Oct-26 10:34N 37°39' E 023°23'  
Track history (hours):
 
Tides and Currents Weather Stations Pressure Air Temp Water Temp Dewpoint Dewpoint Depression Visibility Wind Speed Wind Dir Waves Ship Positions

Mystic Blue

Last reported at 2017-Nov-04 08:44 UTC. Time now 2017-Dec-13 17:05 UTC.
Position N 37°55' E 023°42'.
Warning: this ship's position is 39 days out of date.

Length 12 m.

Type: Pleasure craft. MMSI: 239989200.

Date/timePositionNaut miles runAvg speedWind from/ knotsBaromVisibWave heightAir tempDewpointWater temp
2017-Nov-04 08:44N 37°55' E 023°42'0 0.0
2017-Nov-04 08:29N 37°55' E 023°42'0 0.0
2017-Nov-04 07:52N 37°55' E 023°42'0 0.0
2017-Nov-04 07:28N 37°55' E 023°42'1 2.0
2017-Nov-04 07:01N 37°54' E 023°42'2 3.0
2017-Nov-04 06:29N 37°53' E 023°40'1 2.1
2017-Nov-04 06:01N 37°52' E 023°40'2 5.0
2017-Nov-04 05:30N 37°51' E 023°37'3 5.1
2017-Nov-04 05:01N 37°49' E 023°35'2 3.9
2017-Nov-04 04:31N 37°47' E 023°34'2 3.1
2017-Nov-04 04:00N 37°45' E 023°34'2 0.1
2017-Nov-03 11:59N 37°44' E 023°33'2 3.9
2017-Nov-03 11:30N 37°42' E 023°33'2 3.3
2017-Nov-03 11:00N 37°41' E 023°31'11 3.4
2017-Nov-03 07:50N 37°39' E 023°18'  
2017-Oct-29 10:26N 37°38' E 023°30'2 5.3
2017-Oct-29 09:58N 37°40' E 023°31'2 4.9
2017-Oct-29 09:29N 37°42' E 023°33'2 3.7
2017-Oct-29 09:00N 37°43' E 023°35'1 1.9
2017-Oct-29 08:30N 37°44' E 023°35'2 3.1
2017-Oct-29 08:00N 37°46' E 023°35'2 3.6
2017-Oct-29 07:30N 37°47' E 023°35'2 3.9
2017-Oct-29 07:00N 37°49' E 023°34'1 2.0
2017-Oct-29 06:30N 37°50' E 023°35'3 7.0
2017-Oct-29 06:00N 37°52' E 023°38'3 6.2
2017-Oct-29 05:30N 37°54' E 023°41'1 2.2
2017-Oct-29 04:58N 37°55' E 023°42'0 0.0
2017-Oct-28 14:24N 37°55' E 023°42'0 0.0
2017-Oct-28 14:00N 37°55' E 023°42'0 0.0
2017-Oct-28 13:21N 37°55' E 023°42'0 0.0
2017-Oct-28 12:57N 37°55' E 023°42'0 0.0
2017-Oct-28 12:30N 37°55' E 023°42'0 0.0
2017-Oct-28 12:00N 37°55' E 023°42'0 0.0
2017-Oct-28 11:30N 37°55' E 023°42'0 0.0
2017-Oct-28 10:57N 37°55' E 023°42'0 0.0
2017-Oct-28 10:24N 37°55' E 023°42'0 0.0
2017-Oct-28 09:54N 37°55' E 023°42'0 0.0
2017-Oct-28 09:30N 37°55' E 023°42'0 0.0
2017-Oct-28 08:57N 37°55' E 023°42'0 0.0
2017-Oct-28 08:30N 37°55' E 023°42'0 0.0
2017-Oct-28 08:00N 37°55' E 023°42'0 0.0
2017-Oct-28 07:18N 37°55' E 023°42'0 0.0
2017-Oct-28 07:00N 37°55' E 023°42'0 0.0
2017-Oct-28 06:21N 37°55' E 023°42'0 0.0
2017-Oct-27 13:49N 37°55' E 023°42'0 0.0
2017-Oct-27 13:25N 37°55' E 023°42'0 0.2
2017-Oct-27 13:00N 37°55' E 023°42'3 6.6
2017-Oct-27 12:29N 37°53' E 023°38'3 7.2
2017-Oct-27 12:00N 37°52' E 023°34'4 7.4
2017-Oct-27 11:30N 37°50' E 023°30'2 4.4
2017-Oct-27 10:59N 37°49' E 023°27'0 0.0
2017-Oct-27 10:26N 37°49' E 023°27'0 0.0
2017-Oct-27 09:59N 37°49' E 023°27'0 0.1
2017-Oct-27 09:30N 37°49' E 023°27'3 5.7
2017-Oct-27 09:00N 37°47' E 023°25'3 5.5
2017-Oct-27 08:30N 37°46' E 023°22'7 0.3
2017-Oct-26 10:34N 37°39' E 023°23'  

Dump ship's entire track history